createdAt,value
2018-05-09T00:00:03.687Z,16.70
2018-05-09T00:02:32.712Z,16.40
2018-05-09T00:05:00.963Z,16.40
2018-05-09T00:07:29.211Z,16.30
2018-05-09T00:09:58.237Z,16.10
2018-05-09T00:12:27.266Z,16.10
2018-05-09T00:14:55.529Z,16.10
2018-05-09T00:17:23.767Z,16.10
2018-05-09T00:19:52.798Z,16.00
2018-05-09T00:22:21.054Z,16.00
2018-05-09T00:24:49.297Z,15.90
2018-05-09T00:27:19.050Z,15.60
2018-05-09T00:29:47.301Z,15.60
2018-05-09T00:32:16.339Z,15.40
2018-05-09T00:34:44.587Z,15.40
2018-05-09T00:37:12.826Z,15.40
2018-05-09T00:39:41.082Z,15.30
2018-05-09T00:42:09.320Z,15.20
2018-05-09T00:44:37.568Z,15.20
2018-05-09T00:47:06.613Z,15.20
2018-05-09T00:49:34.856Z,15.10
2018-05-09T00:52:03.102Z,15.10
2018-05-09T00:54:33.242Z,15.00
2018-05-09T00:57:02.280Z,15.00
2018-05-09T00:59:30.534Z,14.90
2018-05-09T01:01:59.543Z,14.80
2018-05-09T01:04:27.811Z,14.80
2018-05-09T01:06:56.050Z,14.80
2018-05-09T01:09:25.071Z,14.90
2018-05-09T01:11:54.106Z,14.90
2018-05-09T01:14:22.361Z,14.90
2018-05-09T01:16:50.605Z,14.90
2018-05-09T01:19:18.877Z,14.90
2018-05-09T01:21:47.901Z,14.70
2018-05-09T01:24:16.150Z,14.70
2018-05-09T01:26:44.409Z,14.70
2018-05-09T01:29:14.478Z,14.70
2018-05-09T01:31:42.734Z,14.70
2018-05-09T01:34:11.025Z,14.60
2018-05-09T01:36:39.271Z,14.60
2018-05-09T01:39:07.539Z,14.50
2018-05-09T01:41:36.596Z,14.50
2018-05-09T01:44:04.862Z,14.50
2018-05-09T01:46:33.157Z,14.30
2018-05-09T01:49:01.417Z,14.40
2018-05-09T01:51:29.701Z,14.20
2018-05-09T01:53:57.966Z,14.40
2018-05-09T01:56:26.232Z,14.10
2018-05-09T01:58:55.248Z,14.00
2018-05-09T02:01:23.502Z,14.00
2018-05-09T02:03:52.535Z,14.10
2018-05-09T02:06:20.783Z,14.00
2018-05-09T02:08:49.026Z,14.20
2018-05-09T02:11:17.302Z,14.00
2018-05-09T02:13:45.574Z,13.80
2018-05-09T02:16:13.831Z,13.70
2018-05-09T02:18:42.848Z,13.70
2018-05-09T02:21:11.104Z,13.70
2018-05-09T02:23:40.119Z,13.60
2018-05-09T02:26:08.385Z,13.70
2018-05-09T02:28:36.697Z,13.50
2018-05-09T02:31:04.967Z,13.40
2018-05-09T02:33:33.204Z,13.40
2018-05-09T02:36:02.223Z,13.20
2018-05-09T02:38:30.468Z,13.30
2018-05-09T02:40:59.474Z,13.30
2018-05-09T02:43:27.762Z,13.30
2018-05-09T02:45:56.018Z,13.20
2018-05-09T02:48:25.026Z,12.90
2018-05-09T02:50:53.274Z,12.90
2018-05-09T02:53:22.427Z,13.00
2018-05-09T02:55:50.672Z,12.90
2018-05-09T02:58:18.923Z,12.80
2018-05-09T03:00:47.944Z,12.90
2018-05-09T03:03:16.217Z,12.90
2018-05-09T03:05:44.457Z,12.90
2018-05-09T03:08:13.481Z,12.80
2018-05-09T03:10:41.749Z,12.80
2018-05-09T03:13:10.823Z,13.10
2018-05-09T03:15:39.089Z,13.10
2018-05-09T03:18:07.332Z,12.90
2018-05-09T03:20:35.628Z,12.80
2018-05-09T03:23:03.861Z,12.90
2018-05-09T03:25:32.121Z,13.00
2018-05-09T03:28:01.137Z,13.10
2018-05-09T03:30:29.390Z,13.00
2018-05-09T03:32:58.401Z,12.90
2018-05-09T03:35:26.655Z,12.90
2018-05-09T03:37:55.678Z,12.70
2018-05-09T03:40:23.929Z,12.70
2018-05-09T03:42:52.206Z,12.70
2018-05-09T03:45:20.475Z,12.80
2018-05-09T03:47:49.512Z,12.80
2018-05-09T03:50:17.776Z,12.80
2018-05-09T03:52:46.036Z,12.80
2018-05-09T03:55:14.295Z,12.90
2018-05-09T03:57:43.321Z,12.80
2018-05-09T04:00:11.592Z,12.70
2018-05-09T04:02:51.976Z,12.70
2018-05-09T04:05:32.053Z,12.70
2018-05-09T04:08:12.480Z,12.90
2018-05-09T04:10:41.704Z,12.80
2018-05-09T04:13:10.045Z,12.80
2018-05-09T04:15:38.238Z,12.80
2018-05-09T04:18:06.482Z,12.70
2018-05-09T04:20:34.759Z,12.60
2018-05-09T04:23:03.753Z,12.70
2018-05-09T04:25:32.008Z,12.70
2018-05-09T04:28:01.066Z,12.70
2018-05-09T04:30:29.325Z,12.70
2018-05-09T04:32:57.596Z,12.70
2018-05-09T04:35:25.895Z,12.70
2018-05-09T04:37:54.182Z,13.10
2018-05-09T04:40:22.451Z,13.40
2018-05-09T04:42:50.728Z,13.50
2018-05-09T04:45:19.813Z,13.20
2018-05-09T04:47:48.077Z,13.20
2018-05-09T04:50:16.335Z,13.00
2018-05-09T04:52:44.834Z,13.10
2018-05-09T04:55:13.092Z,13.10
2018-05-09T04:57:41.375Z,13.10
2018-05-09T05:00:09.651Z,13.20
2018-05-09T05:02:37.923Z,13.20
2018-05-09T05:05:06.198Z,13.30
2018-05-09T05:07:34.520Z,13.50
2018-05-09T05:10:02.946Z,14.10
2018-05-09T05:12:31.197Z,14.60
2018-05-09T05:15:01.009Z,15.50
2018-05-09T05:17:30.153Z,15.50
2018-05-09T05:19:58.566Z,15.50
2018-05-09T05:22:26.826Z,15.50
2018-05-09T05:24:55.135Z,15.60
2018-05-09T05:27:23.382Z,15.90
2018-05-09T05:29:51.637Z,16.00
2018-05-09T05:32:19.925Z,16.10
2018-05-09T05:34:48.234Z,16.30
2018-05-09T05:37:17.257Z,16.40
2018-05-09T05:39:45.579Z,16.40
2018-05-09T05:42:13.843Z,16.80
2018-05-09T05:44:42.122Z,16.70
2018-05-09T05:47:10.374Z,16.50
2018-05-09T05:49:38.612Z,16.40
2018-05-09T05:52:08.598Z,16.30
2018-05-09T05:54:36.846Z,16.30
2018-05-09T05:57:05.094Z,15.80
2018-05-09T05:59:33.367Z,16.20
2018-05-09T06:02:02.378Z,17.30
2018-05-09T06:04:30.656Z,17.30
2018-05-09T06:18:25.112Z,17.60
2018-05-09T06:20:53.371Z,17.20
2018-05-09T06:23:22.652Z,17.50
2018-05-09T06:25:50.899Z,17.50
2018-05-09T06:28:19.150Z,17.40
2018-05-09T06:30:47.675Z,17.40
2018-05-09T06:33:15.952Z,17.40
2018-05-09T06:35:44.202Z,17.60
2018-05-09T06:38:12.460Z,17.80
2018-05-09T06:40:40.752Z,18.30
2018-05-09T06:43:09.014Z,19.00
2018-05-09T06:45:37.269Z,19.20
2018-05-09T06:48:05.526Z,19.50
2018-05-09T06:50:34.561Z,19.70
2018-05-09T06:53:02.818Z,19.70
2018-05-09T06:55:31.193Z,19.30
2018-05-09T06:57:59.444Z,20.10
2018-05-09T07:00:28.461Z,21.00
2018-05-09T07:02:56.773Z,21.10
2018-05-09T07:05:25.039Z,20.50
2018-05-09T07:07:53.340Z,20.20
2018-05-09T07:10:21.610Z,19.50
2018-05-09T07:12:49.851Z,19.20
2018-05-09T07:15:18.114Z,19.50
2018-05-09T07:17:46.382Z,19.80
2018-05-09T07:20:14.632Z,20.20
2018-05-09T07:22:42.878Z,19.90
2018-05-09T07:25:11.126Z,20.10
2018-05-09T07:27:39.396Z,19.70
2018-05-09T07:30:07.685Z,19.60
2018-05-09T07:32:35.947Z,20.10
2018-05-09T07:35:04.954Z,20.20
2018-05-09T07:37:33.195Z,20.20
2018-05-09T07:40:02.259Z,20.80
2018-05-09T07:42:31.011Z,20.80
2018-05-09T07:44:59.283Z,21.50
2018-05-09T07:47:27.623Z,21.60
2018-05-09T07:49:55.877Z,21.30
2018-05-09T07:52:24.136Z,21.10
2018-05-09T07:54:52.400Z,21.90
2018-05-09T07:57:20.708Z,21.40
2018-05-09T07:59:49.007Z,22.30
2018-05-09T08:02:17.263Z,22.10
2018-05-09T08:04:45.536Z,22.60
2018-05-09T08:07:13.793Z,22.40
2018-05-09T08:09:42.061Z,22.40
2018-05-09T08:12:10.321Z,22.30
2018-05-09T08:14:38.652Z,22.60
2018-05-09T08:17:06.908Z,22.90
2018-05-09T08:19:35.168Z,22.70
2018-05-09T08:22:04.156Z,23.30
2018-05-09T08:24:32.404Z,24.00
2018-05-09T08:27:00.649Z,24.60
2018-05-09T08:29:29.665Z,25.00
2018-05-09T08:31:57.930Z,25.00
2018-05-09T08:34:26.994Z,24.10
2018-05-09T08:36:55.239Z,24.00
2018-05-09T08:39:23.529Z,24.40
2018-05-09T08:41:51.818Z,24.00
2018-05-09T08:44:20.180Z,23.60
2018-05-09T08:46:48.429Z,24.10
2018-05-09T08:49:16.823Z,23.80
2018-05-09T08:51:45.023Z,24.00
2018-05-09T08:54:13.279Z,24.00
2018-05-09T08:56:41.554Z,24.20
2018-05-09T08:59:09.811Z,24.20
2018-05-09T09:01:38.085Z,23.90
2018-05-09T09:04:06.352Z,25.00
2018-05-09T09:06:34.613Z,25.00
2018-05-09T09:09:03.667Z,25.30
2018-05-09T09:11:32.027Z,25.30
2018-05-09T09:14:00.276Z,26.20
2018-05-09T09:16:28.511Z,24.60
2018-05-09T09:18:58.336Z,26.60
2018-05-09T09:21:27.344Z,26.40
2018-05-09T09:23:55.618Z,26.30
2018-05-09T09:26:23.962Z,26.30
2018-05-09T09:28:52.295Z,25.80
2018-05-09T09:31:20.547Z,25.50
2018-05-09T09:33:48.827Z,26.50
2018-05-09T09:36:17.095Z,26.50
2018-05-09T09:38:45.363Z,26.70
2018-05-09T09:41:13.673Z,26.90
2018-05-09T09:43:42.691Z,26.40
2018-05-09T09:46:10.975Z,27.00
2018-05-09T09:48:39.232Z,26.80
2018-05-09T09:51:07.500Z,27.10
2018-05-09T09:53:35.789Z,27.60
2018-05-09T09:56:04.182Z,27.50
2018-05-09T09:58:32.458Z,26.80
2018-05-09T10:01:00.737Z,26.70
2018-05-09T10:03:29.003Z,26.70
2018-05-09T10:05:57.260Z,27.50
2018-05-09T10:08:25.560Z,27.80
2018-05-09T10:10:53.857Z,27.20
2018-05-09T10:13:22.929Z,26.80
2018-05-09T10:15:51.190Z,26.80
2018-05-09T10:18:19.474Z,28.30
2018-05-09T10:20:47.724Z,28.00
2018-05-09T10:23:16.072Z,27.90
2018-05-09T10:25:45.052Z,27.30
2018-05-09T10:28:14.184Z,28.20
2018-05-09T10:30:42.453Z,28.10
2018-05-09T10:33:10.768Z,29.00
2018-05-09T10:35:39.005Z,28.20
2018-05-09T10:38:07.736Z,27.80
2018-05-09T10:40:36.770Z,28.20
2018-05-09T10:43:05.014Z,28.20
2018-05-09T10:45:34.060Z,29.20
2018-05-09T10:48:02.342Z,29.20
2018-05-09T10:50:30.593Z,28.60
2018-05-09T10:52:58.849Z,27.60
2018-05-09T10:55:27.161Z,27.30
2018-05-09T10:57:55.465Z,27.10
2018-05-09T11:00:24.488Z,27.80
2018-05-09T11:02:53.497Z,28.10
2018-05-09T11:05:21.797Z,28.10
2018-05-09T11:07:50.115Z,27.50
2018-05-09T11:10:18.490Z,27.20
2018-05-09T11:12:46.758Z,26.60
2018-05-09T11:15:15.099Z,26.00
2018-05-09T11:17:43.365Z,25.80
2018-05-09T11:20:11.620Z,25.40
2018-05-09T11:22:40.031Z,26.30
2018-05-09T11:25:08.298Z,26.30
2018-05-09T11:27:36.576Z,26.30
2018-05-09T11:30:04.829Z,27.80
2018-05-09T11:32:33.094Z,29.10
2018-05-09T11:35:02.113Z,27.80
2018-05-09T11:37:30.502Z,27.80
2018-05-09T11:39:58.784Z,26.70
2018-05-09T11:42:27.060Z,27.00
2018-05-09T11:44:55.374Z,26.30
2018-05-09T11:47:23.648Z,26.20
2018-05-09T11:49:51.990Z,26.50
2018-05-09T11:52:20.479Z,27.60
2018-05-09T11:54:48.723Z,28.70
2018-05-09T11:57:16.990Z,28.30
2018-05-09T11:59:45.221Z,27.50
2018-05-09T12:02:13.505Z,28.70
2018-05-09T12:04:41.799Z,28.40
2018-05-09T12:07:10.082Z,28.70
2018-05-09T12:09:38.428Z,28.70
2018-05-09T12:12:06.716Z,28.70
2018-05-09T12:14:35.721Z,28.70
2018-05-09T12:17:04.741Z,27.60
2018-05-09T12:19:33.080Z,27.50
2018-05-09T12:22:01.409Z,26.70
2018-05-09T12:24:29.662Z,25.60
2018-05-09T12:26:57.941Z,25.20
2018-05-09T12:29:26.244Z,27.20
2018-05-09T12:31:54.531Z,28.90
2018-05-09T12:34:23.640Z,27.50
2018-05-09T12:36:51.927Z,27.50
2018-05-09T12:39:20.185Z,27.70
2018-05-09T12:41:49.209Z,28.10
2018-05-09T12:44:18.246Z,28.10
2018-05-09T12:46:46.511Z,28.10
2018-05-09T12:49:14.750Z,28.10
2018-05-09T12:51:43.785Z,28.40
2018-05-09T12:54:12.038Z,28.40
2018-05-09T12:56:40.370Z,28.80
2018-05-09T12:59:08.731Z,28.40
2018-05-09T13:01:37.010Z,28.50
2018-05-09T13:04:05.412Z,28.70
2018-05-09T13:06:33.679Z,28.70
2018-05-09T13:09:01.920Z,28.40
2018-05-09T13:11:30.191Z,28.00
2018-05-09T13:13:58.485Z,27.70
2018-05-09T13:16:26.728Z,27.50
2018-05-09T13:18:55.002Z,27.80
2018-05-09T13:21:23.263Z,28.50
2018-05-09T13:23:52.286Z,28.60
2018-05-09T13:26:20.525Z,28.60
2018-05-09T13:28:49.563Z,28.90
2018-05-09T13:31:17.854Z,28.90
2018-05-09T13:33:46.091Z,28.60
2018-05-09T13:36:14.375Z,28.70
2018-05-09T13:38:42.684Z,28.40
2018-05-09T13:41:10.931Z,27.80
2018-05-09T13:43:39.239Z,28.50
2018-05-09T13:46:07.644Z,28.50
2018-05-09T13:48:35.917Z,27.80
2018-05-09T13:51:04.954Z,28.40
2018-05-09T13:53:33.241Z,28.40
2018-05-09T13:56:01.522Z,28.40
2018-05-09T13:58:29.810Z,28.70
2018-05-09T14:00:58.070Z,28.00
2018-05-09T14:03:26.263Z,26.60
2018-05-09T14:05:54.461Z,26.10
2018-05-09T14:08:23.512Z,25.60
2018-05-09T14:10:51.767Z,25.50
2018-05-09T14:13:20.060Z,26.10
2018-05-09T14:15:48.300Z,26.20
2018-05-09T14:18:18.173Z,27.00
2018-05-09T14:20:46.421Z,26.90
2018-05-09T14:23:14.739Z,27.70
2018-05-09T14:25:43.012Z,28.30
2018-05-09T14:28:11.280Z,28.30
2018-05-09T14:30:39.586Z,28.30
2018-05-09T14:33:08.601Z,28.80
2018-05-09T14:35:36.854Z,28.80
2018-05-09T14:38:05.903Z,29.50
2018-05-09T14:40:34.153Z,29.50
2018-05-09T14:43:02.449Z,29.10
2018-05-09T14:45:30.768Z,29.10
2018-05-09T14:47:59.091Z,28.80
2018-05-09T14:50:27.347Z,27.70
2018-05-09T14:52:55.601Z,26.80
2018-05-09T14:55:23.904Z,26.70
2018-05-09T14:57:52.927Z,26.20
2018-05-09T15:00:21.270Z,26.10
2018-05-09T15:02:50.410Z,25.80
2018-05-09T15:05:18.751Z,25.80
2018-05-09T15:07:47.005Z,26.10
2018-05-09T15:10:16.035Z,26.60
2018-05-09T15:12:44.306Z,26.50
2018-05-09T15:15:12.551Z,26.70
2018-05-09T15:17:41.573Z,26.70
2018-05-09T15:20:09.882Z,26.70
2018-05-09T15:22:38.163Z,26.70
2018-05-09T15:25:06.450Z,27.70
2018-05-09T15:27:34.827Z,27.20
2018-05-09T15:30:03.099Z,27.20
2018-05-09T15:32:31.470Z,27.50
2018-05-09T15:34:59.718Z,27.60
2018-05-09T15:37:27.986Z,27.40
2018-05-09T15:39:56.242Z,27.40
2018-05-09T15:42:25.253Z,26.50
2018-05-09T15:44:53.707Z,26.50
2018-05-09T15:47:21.939Z,27.00
2018-05-09T15:49:50.196Z,27.20
2018-05-09T15:52:19.216Z,27.50
2018-05-09T15:54:47.522Z,27.50
2018-05-09T15:57:15.797Z,27.30
2018-05-09T15:59:44.098Z,27.70
2018-05-09T16:02:12.352Z,27.20
2018-05-09T16:04:41.365Z,26.70
2018-05-09T16:07:09.687Z,26.70
2018-05-09T16:09:37.939Z,26.60
2018-05-09T16:12:06.339Z,26.70
2018-05-09T16:14:34.656Z,26.50
2018-05-09T16:17:04.567Z,26.60
2018-05-09T16:19:33.624Z,26.80
2018-05-09T16:22:01.900Z,26.80
2018-05-09T16:24:30.149Z,27.10
2018-05-09T16:26:58.522Z,26.80
2018-05-09T16:29:26.789Z,26.60
2018-05-09T16:31:55.071Z,26.50
2018-05-09T16:34:24.275Z,26.40
2018-05-09T16:36:52.547Z,26.40
2018-05-09T16:39:21.712Z,26.20
2018-05-09T16:41:50.754Z,26.10
2018-05-09T16:44:19.552Z,26.10
2018-05-09T16:46:47.831Z,26.20
2018-05-09T16:49:16.111Z,26.10
2018-05-09T16:51:45.163Z,26.10
2018-05-09T16:54:13.457Z,25.80
2018-05-09T16:56:41.703Z,25.50
2018-05-09T16:59:11.295Z,25.40
2018-05-09T17:01:40.323Z,25.40
2018-05-09T17:04:08.630Z,25.40
2018-05-09T17:06:36.887Z,25.40
2018-05-09T17:09:05.909Z,25.20
2018-05-09T17:11:34.925Z,25.20
2018-05-09T17:14:03.986Z,25.20
2018-05-09T17:16:32.246Z,25.20
2018-05-09T17:19:00.498Z,25.20
2018-05-09T17:21:40.443Z,25.30
2018-05-09T17:24:10.339Z,25.10
2018-05-09T17:26:39.399Z,25.10
2018-05-09T17:29:07.649Z,25.10
2018-05-09T17:31:35.888Z,25.20
2018-05-09T17:34:04.910Z,25.20
2018-05-09T17:36:33.186Z,25.20
2018-05-09T17:39:01.449Z,25.10
2018-05-09T17:41:29.713Z,25.10
2018-05-09T17:43:58.768Z,25.30
2018-05-09T17:46:27.044Z,25.20
2018-05-09T17:48:55.298Z,25.20
2018-05-09T17:51:23.520Z,25.20
2018-05-09T17:53:52.541Z,25.20
2018-05-09T17:56:20.796Z,25.10
2018-05-09T17:58:49.919Z,24.80
2018-05-09T18:01:18.099Z,24.80
2018-05-09T18:03:46.353Z,24.80
2018-05-09T18:06:14.653Z,24.50
2018-05-09T18:08:42.904Z,24.30
2018-05-09T18:11:11.943Z,24.10
2018-05-09T18:13:40.195Z,24.10
2018-05-09T18:16:08.447Z,24.00
2018-05-09T18:18:37.474Z,23.80
2018-05-09T18:21:05.876Z,23.70
2018-05-09T18:23:34.123Z,23.50
2018-05-09T18:26:02.361Z,23.40
2018-05-09T18:28:31.412Z,23.30
2018-05-09T18:30:59.645Z,23.30
2018-05-09T18:33:27.967Z,23.30
2018-05-09T18:35:56.923Z,23.20
2018-05-09T18:38:25.184Z,23.20
2018-05-09T18:40:54.208Z,23.10
2018-05-09T18:43:22.463Z,23.00
2018-05-09T18:45:50.736Z,22.80
2018-05-09T18:48:18.999Z,22.90
2018-05-09T18:50:48.029Z,22.80
2018-05-09T18:53:16.289Z,22.70
2018-05-09T18:55:44.547Z,22.70
2018-05-09T18:58:13.572Z,22.50
2018-05-09T19:00:41.839Z,22.50
2018-05-09T19:03:10.104Z,22.50
2018-05-09T19:05:38.362Z,22.30
2018-05-09T19:08:07.406Z,22.10
2018-05-09T19:10:35.656Z,22.10
2018-05-09T19:13:03.908Z,22.00
2018-05-09T19:15:32.945Z,21.80
2018-05-09T19:18:01.184Z,21.70
2018-05-09T19:20:30.220Z,21.70
2018-05-09T19:22:58.580Z,21.60
2018-05-09T19:25:26.795Z,21.60
2018-05-09T19:27:55.056Z,21.60
2018-05-09T19:30:24.068Z,21.60
2018-05-09T19:32:52.383Z,21.50
2018-05-09T19:35:20.630Z,21.50
2018-05-09T19:37:50.594Z,21.50
2018-05-09T19:40:18.855Z,21.50
2018-05-09T19:42:47.132Z,21.50
2018-05-09T19:45:15.390Z,21.40
2018-05-09T19:47:44.456Z,21.30
2018-05-09T19:50:12.794Z,21.30
2018-05-09T19:52:41.064Z,21.30
2018-05-09T19:55:09.370Z,21.30
2018-05-09T19:57:37.622Z,21.10
2018-05-09T20:00:05.925Z,21.10
2018-05-09T20:02:34.193Z,21.10
2018-05-09T20:05:02.447Z,21.00
2018-05-09T20:07:30.749Z,20.90
2018-05-09T20:09:58.994Z,20.80
2018-05-09T20:12:27.315Z,20.80
2018-05-09T20:14:55.563Z,20.80
2018-05-09T20:17:23.805Z,20.70
2018-05-09T20:19:52.813Z,20.40
2018-05-09T20:22:21.061Z,20.40
2018-05-09T20:24:50.088Z,20.40
2018-05-09T20:27:18.346Z,20.40
2018-05-09T20:29:46.621Z,20.40
2018-05-09T20:32:27.468Z,20.30
2018-05-09T20:34:55.722Z,20.30
2018-05-09T20:37:23.993Z,20.30
2018-05-09T20:39:52.248Z,20.10
2018-05-09T20:42:20.518Z,19.90
2018-05-09T20:44:48.787Z,19.90
2018-05-09T20:47:17.048Z,20.00
2018-05-09T20:49:46.164Z,20.00
2018-05-09T20:52:14.438Z,20.00
2018-05-09T20:54:42.685Z,20.10
2018-05-09T20:57:11.759Z,20.10
2018-05-09T20:59:39.995Z,20.00
2018-05-09T21:02:08.239Z,20.10
2018-05-09T21:04:37.273Z,19.90
2018-05-09T21:07:05.541Z,19.90
2018-05-09T21:09:33.809Z,19.90
2018-05-09T21:12:08.976Z,19.90
2018-05-09T21:14:37.588Z,19.90
2018-05-09T21:17:05.786Z,19.90
2018-05-09T21:19:34.050Z,19.80
2018-05-09T21:22:03.080Z,19.80
2018-05-09T21:24:31.324Z,19.80
2018-05-09T21:27:00.338Z,19.80
2018-05-09T21:29:28.622Z,19.80
2018-05-09T21:31:56.897Z,19.70
2018-05-09T21:34:25.142Z,19.70
2018-05-09T21:36:54.170Z,19.60
2018-05-09T21:39:22.418Z,19.60
2018-05-09T21:41:51.428Z,19.50
2018-05-09T21:44:19.714Z,19.40
2018-05-09T21:46:47.986Z,19.50
2018-05-09T21:49:16.311Z,19.50
2018-05-09T21:51:44.542Z,19.60
2018-05-09T21:54:12.790Z,19.60
2018-05-09T21:56:41.852Z,19.70
2018-05-09T21:59:10.112Z,19.60
2018-05-09T22:01:38.356Z,19.60
2018-05-09T22:04:07.394Z,19.50
2018-05-09T22:06:35.629Z,19.50
2018-05-09T22:09:03.899Z,19.50
2018-05-09T22:11:32.147Z,19.50
2018-05-09T22:14:01.179Z,19.50
2018-05-09T22:16:29.478Z,19.50
2018-05-09T22:18:57.788Z,19.40
2018-05-09T22:21:25.972Z,19.30
2018-05-09T22:23:55.000Z,19.30
2018-05-09T22:26:23.253Z,19.20
2018-05-09T22:28:51.517Z,19.30
2018-05-09T22:31:20.581Z,19.20
2018-05-09T22:33:48.847Z,19.10
2018-05-09T22:36:17.119Z,19.00
2018-05-09T22:38:45.367Z,18.90
2018-05-09T22:41:13.628Z,18.70
2018-05-09T22:43:41.873Z,18.80
2018-05-09T22:46:10.131Z,18.90
2018-05-09T22:48:38.393Z,18.90
2018-05-09T22:51:06.653Z,18.80
2018-05-09T22:53:34.901Z,18.90
2018-05-09T22:56:03.170Z,18.90
2018-05-09T22:58:32.203Z,18.90
2018-05-09T23:01:00.453Z,18.90
2018-05-09T23:03:29.496Z,18.80
2018-05-09T23:05:57.750Z,18.80
2018-05-09T23:08:26.051Z,18.70
2018-05-09T23:10:54.296Z,18.60
2018-05-09T23:13:22.553Z,18.50
2018-05-09T23:15:50.819Z,18.50
2018-05-09T23:18:19.826Z,18.50
2018-05-09T23:20:48.184Z,18.50
2018-05-09T23:23:17.221Z,18.50
2018-05-09T23:25:45.495Z,18.40
2018-05-09T23:28:13.755Z,18.30
2018-05-09T23:30:42.025Z,18.20
2018-05-09T23:33:10.280Z,18.10
2018-05-09T23:35:39.328Z,17.80
2018-05-09T23:38:07.579Z,17.80
2018-05-09T23:40:35.851Z,17.90
2018-05-09T23:43:04.094Z,18.00
2018-05-09T23:45:33.124Z,17.90
2018-05-09T23:48:01.392Z,17.90
2018-05-09T23:50:29.722Z,17.90
2018-05-09T23:52:57.966Z,18.10
2018-05-09T23:55:26.232Z,18.00
2018-05-09T23:57:54.484Z,18.00
